• Join FlightAware (Why Join?)
  • Login
  • US Flag 
10:16PM EST


 

Airport Tracker/Info


-or-


 

Live Flight TrackerFlight Track Log ✈ QFA916 ✈ 09-Oct-2013 ✈ YPPH / PER - YPKA / KTA

Flight Track Log - Related Links

Times and Time Zones

All times are in EDT time to prevent confusion due to time zone crossing. See the QFA916 flight status page for this flight to view local times or setup timezone preferences in your user account.

Time Position Orientation Groundspeed Altitude Reporting Facility
EDT Latitude Longitude Course Direction KTS MPH feet Rate Location/Type
02:50AM -31.9363 115.9662 193° South 110 127  Level FlightAware ADS-B (YPPH / PER)
02:50AM -31.9523 115.9615 194° South 150 173 300 1,320 Climbing FlightAware ADS-B (YPPH / PER)
02:51AM -31.9860 115.9510 195° South 181 208 1,700 1,740 Climbing FlightAware
02:51AM -31.9938 115.9489 193° South 198 228 1,900 3,600 Climbing FlightAware ADS-B (YPPH / PER)
02:51AM -32.0145 115.9359 208° Southwest 206 237 3,500 2,700 Climbing FlightAware ADS-B (YPPH / PER)
02:52AM -32.0228 115.8963 256° West 253 291 4,600 3,060 Climbing FlightAware ADS-B (YPPH / PER)
02:52AM -32.0183 115.8627 279° West 247 284 6,500 4,080 Climbing FlightAware ADS-B (YPPH / PER)
02:53AM -32.0145 115.8348 279° West 254 292 7,700 3,180 Climbing FlightAware ADS-B (YPPH / PER)
02:53AM -32.0084 115.7880 279° West 271 312 9,400 2,760 Climbing FlightAware ADS-B (YPPH / PER)
02:54AM -31.9979 115.7410 285° West 299 344 10,700 2,040 Climbing FlightAware ADS-B (YPPH / PER)
02:54AM -31.9873 115.7275 313° West 317 365 10,900 1,560 Climbing FlightAware ADS-B (YPPH / PER)
02:54AM -31.9712 115.7175 332° Northwest 337 388 11,300 2,820 Climbing FlightAware ADS-B (YPPH / PER)
02:55AM -31.9255 115.7169 332° Northwest 349 402 12,900 3,000 Climbing Aus ATC (RADAR)
02:55AM -31.9220 115.7180 332° Northwest 354 407 12,900 2,640 Level FlightAware
02:55AM -31.9057 115.7195 North 357 411 13,300 2,460 Climbing FlightAware ADS-B (YPPH / PER)
02:56AM -31.7890 115.7340 North 402 463 16,000 2,460 Climbing FlightAware
02:56AM -31.7778 115.7348 North 401 461 16,300 3,420 Climbing FlightAware ADS-B (YPPH / PER)
02:56AM -31.7153 115.7421 North 392 451 18,200 2,940 Climbing FlightAware ADS-B (YPPH / PER)
02:57AM -31.6509 115.7495 North 406 467 19,700 2,460 Climbing FlightAware ADS-B (YPPH / PER)
02:58AM -31.5925 115.7561 North 407 468 20,900 2,340 Climbing FlightAware ADS-B (YPPH / PER)
02:58AM -31.5350 115.7630 North 418 481 22,200 2,520 Climbing FlightAware
02:58AM -31.5168 115.7649 North 418 481 22,600 2,640 Climbing FlightAware ADS-B (YPPH / PER)
02:59AM -31.4391 115.7738 North 418 481 24,300 2,400 Climbing FlightAware ADS-B (YPPH / PER)
02:59AM -31.3803 115.7803 North 420 483 25,400 2,100 Climbing FlightAware ADS-B (YPPH / PER)
03:00AM -31.3219 115.7869 North 422 486 26,400 1,860 Climbing FlightAware ADS-B (YPPH / PER)
03:00AM -31.2641 115.7936 North 420 483 27,300 1,800 Climbing FlightAware ADS-B (YPPH / PER)
03:01AM -31.2047 115.8004 North 421 484 28,200 1,920 Climbing FlightAware ADS-B (YPPH / PER)
03:01AM -31.1411 115.8077 North 418 481 29,300 1,740 Climbing FlightAware ADS-B (YPPH / PER)
03:02AM -31.0817 115.8144 North 421 484 30,000 1,500 Climbing FlightAware ADS-B (YPPH / PER)
03:02AM -31.0168 115.8218 North 420 483 30,900 1,500 Climbing FlightAware ADS-B (YPPH / PER)
03:03AM -30.9569 115.8288 North 422 486 31,600 1,320 Climbing FlightAware ADS-B (YPPH / PER)
03:04AM -30.8915 115.8361 North 423 487 32,300 1,320 Climbing FlightAware ADS-B (YPPH / PER)
03:04AM -30.8323 115.8428 North 433 498 33,000 1,140 Climbing FlightAware ADS-B (YPPH / PER)
03:05AM -30.7657 115.8502 North 436 502 33,500 900 Climbing FlightAware ADS-B (YPPH / PER)
03:05AM -30.7058 115.8569 North 438 504 34,000 1,080 Climbing FlightAware ADS-B (YPPH / PER)
03:06AM -30.6375 115.8647 North 437 503 34,700 1,500 Climbing FlightAware ADS-B (YPPH / PER)
03:06AM -30.5778 115.8717 North 420 483 35,600 2,040 Climbing FlightAware ADS-B (YPPH / PER)
03:07AM -30.5138 115.8794 North 408 470 36,900 1,680 Climbing FlightAware ADS-B (YPPH / PER)
03:07AM -30.4579 115.8857 North 405 466 37,400 720 Climbing FlightAware ADS-B (YPPH / PER)
03:08AM -30.3944 115.8925 North 408 470 37,700 540 Climbing FlightAware ADS-B (YPPH / PER)
03:08AM -30.3373 115.8988 North 402 463 38,000 420 Climbing FlightAware ADS-B (YPPH / PER)
03:09AM -30.2753 115.9055 North 406 467 38,200 360 Climbing FlightAware ADS-B (YPPH / PER)
03:09AM -30.2169 115.9119 North 419 482 38,400 420 Climbing FlightAware ADS-B (YPPH / PER)
03:10AM -30.1528 115.9193 North 423 487 38,700 420 Climbing FlightAware ADS-B (YPPH / PER)
03:10AM -30.0942 115.9258 North 417 480 38,900 240 Climbing FlightAware ADS-B (YPPH / PER)
03:11AM -30.0272 115.9333 North 419 482 39,000 60 Climbing FlightAware ADS-B (YPPH / PER)
03:11AM -29.9683 115.9398 North 419 482 39,000  Level FlightAware ADS-B (YPPH / PER)
03:12AM -29.9034 115.9470 North 419 482 39,000  Level FlightAware ADS-B (YPPH / PER)
03:12AM -29.8441 115.9536 North 420 483 39,000  Level FlightAware ADS-B (YPPH / PER)
03:13AM -29.7768 115.9610 North 420 483 39,000  Level FlightAware ADS-B (YPPH / PER)
03:14AM -29.7180 115.9675 North 420 483 39,000  Level FlightAware ADS-B (YPPH / PER)
03:14AM -29.6507 115.9749 North 420 483 39,000  Level FlightAware ADS-B (YPPH / PER)
03:15AM -29.5924 115.9814 North 421 484 39,000  Level FlightAware ADS-B (YPPH / PER)
03:15AM -29.5263 115.9886 North 420 483 39,000  Level FlightAware ADS-B (YPPH / PER)
03:16AM -29.4676 115.9951 North 422 486 39,000  Level FlightAware ADS-B (YPPH / PER)
03:16AM -29.4027 116.0026 North 408 470 39,000  Level FlightAware ADS-B (YPPH / PER)
03:17AM -29.3470 116.0085 North 405 466 39,000  Level FlightAware ADS-B (YPPH / PER)
03:17AM -29.2832 116.0153 North 404 465 39,000  Level FlightAware ADS-B (YPPH / PER)
03:18AM -29.2271 116.0214 North 405 466 39,000  Level FlightAware ADS-B (YPPH / PER)
03:18AM -29.1638 116.0273 North 405 466 39,000  Level FlightAware ADS-B (YPPH / PER)
03:19AM -29.0881 116.0317 North 401 461 39,000  Level FlightAware ADS-B (YPPH / PER)
03:20AM -29.0242 116.0360 North 402 463 39,000  Level FlightAware ADS-B (YPPH / PER)
03:20AM -28.9674 116.0401 North 401 461 39,000  Level FlightAware ADS-B (YPPH / PER)
03:21AM -28.9050 116.0445 North 407 468 39,000  Level FlightAware ADS-B (YPPH / PER)
03:21AM -28.8484 116.0484 North 400 460 39,000  Level FlightAware ADS-B (YPPH / PER)
03:22AM -28.7858 116.0527 North 406 467 39,000  Level FlightAware ADS-B (YPPH / PER)
03:22AM -28.7280 116.0567 North 406 467 39,000  Level FlightAware ADS-B (YPPH / PER)
03:23AM -28.6645 116.0611 North 406 467 39,000  Level FlightAware ADS-B (YPPH / PER)
03:23AM -28.6085 116.0648 North 406 467 39,000  Level FlightAware ADS-B (YPPH / PER)
03:24AM -28.5442 116.0692 North 406 467 39,000  Level FlightAware ADS-B (YPPH / PER)
03:24AM -28.4879 116.0732 North 403 464 39,000  Level FlightAware ADS-B (YPPH / PER)
03:25AM -28.4267 116.0776 North 386 444 39,000  Level FlightAware ADS-B (YPPH / PER)
03:25AM -28.3712 116.0812 North 386 444 39,000  Level FlightAware ADS-B (YPPH / PER)
03:26AM -28.3098 116.0852 North 385 443 39,000  Level FlightAware ADS-B (YPPH / PER)
03:26AM -28.2551 116.0889 North 384 442 39,000  Level FlightAware ADS-B (YPPH / PER)
03:27AM -28.1942 116.0931 North 391 450 39,000  Level FlightAware ADS-B (YPPH / PER)
03:28AM -28.1406 116.0967 North 389 448 39,000  Level FlightAware ADS-B (YPPH / PER)
03:28AM -28.0862 116.1004 North 386 444 39,000  Level FlightAware ADS-B (YPPH / PER)
03:29AM -28.0830 116.0990 338° Northwest 383 441 39,000  Level FlightAware
03:29AM -28.0290 116.1020 North 383 441 39,000  Level FlightAware
03:30AM -27.9050 116.1130 North 383 441 39,000 120 Level FlightAware
03:30AM -27.8352 116.1100 North 382 440 39,200  Climbing Aus ATC (RADAR)
03:30AM -27.8380 116.1170 North 384 442 39,000  Descending FlightAware
03:31AM -27.7731 116.1130 North 383 441 39,200  Climbing Aus ATC (RADAR)
03:31AM -27.7640 116.1220 North 386 444 39,000  Descending FlightAware
03:32AM -27.7009 116.1154 North 387 445 39,200  Climbing Aus ATC (RADAR)
03:32AM -27.6970 116.1270 North 391 450 39,000  Descending FlightAware
03:32AM -27.6369 116.1173 North 392 451 39,200  Climbing Aus ATC (RADAR)
03:32AM -27.6190 116.1320 North 393 452 39,000 -240 Descending FlightAware
03:33AM -27.5630 116.1350 North 393 452 39,000  Level FlightAware
03:34AM -27.4810 116.1410 North 395 455 39,000  Level FlightAware
03:34AM -27.4120 116.1460 North 396 456 39,000  Level FlightAware
03:35AM -27.3480 116.1500 North 397 457 39,000  Level FlightAware
03:35AM -27.2780 116.1550 North 397 457 39,000  Level FlightAware
03:36AM -27.2170 116.1590 North 397 457 39,000  Level FlightAware
03:37AM -27.1460 116.1640 North 396 456 39,000  Level FlightAware
03:37AM -27.0720 116.1680 North 396 456 39,000  Level FlightAware
03:38AM -27.0160 116.1720 North 396 456 39,000  Level FlightAware
03:39AM -26.9350 116.1780 North 392 451 39,000 120 Level FlightAware
03:39AM -26.8629 116.1877 North 389 448 39,200  Climbing Aus ATC (RADAR)
03:39AM -26.8700 116.1820 North 392 451 39,000 -360 Descending FlightAware
03:40AM -26.8110 116.1850 North 392 451 39,000  Level FlightAware
03:41AM -26.7150 116.1920 North 390 449 39,000  Level FlightAware
03:41AM -26.6580 116.1960 North 391 450 39,000  Level FlightAware
03:42AM -26.5760 116.2010 North 392 451 39,000  Level FlightAware
03:43AM -26.5090 116.2060 North 393 452 39,000  Level FlightAware
03:43AM -26.4530 116.2100 North 393 452 39,000  Level FlightAware
03:44AM -26.3870 116.2140 North 394 453 39,000  Level FlightAware
03:44AM -26.3210 116.2180 North 396 456 39,000  Level FlightAware
03:45AM -26.2530 116.2220 North 396 456 39,000  Level FlightAware
03:46AM -26.1970 116.2260 North 396 456 39,000  Level FlightAware
03:46AM -26.1240 116.2310 North 399 459 39,000 360 Level FlightAware
03:46AM -26.1254 116.2343 North 396 456 39,200 300 Climbing Aus ATC (RADAR)
03:47AM -26.0608 116.2391 North 397 457 39,200 -360 Level Aus ATC (RADAR)
03:47AM -26.0630 116.2350 North 399 459 39,000 -360 Descending FlightAware
03:47AM -26.0070 116.2380 North 399 459 39,000  Level FlightAware
03:48AM -25.9300 116.2440 North 402 463 39,000  Level FlightAware
03:48AM -25.8530 116.2490 North 402 463 39,000  Level FlightAware
03:49AM -25.7980 116.2520 North 402 463 39,000  Level FlightAware
03:50AM -25.7410 116.2550 North 402 463 39,000  Level FlightAware
03:50AM -25.6840 116.2590 North 402 463 39,000 120 Level FlightAware
03:51AM -25.5957 116.2686 North 403 464 39,200  Climbing Aus ATC (RADAR)
03:51AM -25.6280 116.2620 North 402 463 39,000 -360 Descending FlightAware
03:51AM -25.5710 116.2650 North 402 463 39,000  Level FlightAware
03:52AM -25.4550 116.2750 North 406 467 39,000  Level FlightAware
03:53AM -25.3980 116.2780 North 406 467 39,000  Level FlightAware
03:53AM -25.3400 116.2810 North 406 467 39,000  Level FlightAware
03:54AM -25.2500 116.2880 North 408 470 39,000  Level FlightAware
03:54AM -25.1880 116.2920 North 408 470 39,000  Level FlightAware
03:55AM -25.1040 116.2970 North 407 468 39,000  Level FlightAware
03:56AM -25.0470 116.3000 North 407 468 39,000  Level FlightAware
03:56AM -24.9890 116.3040 North 407 468 39,000  Level FlightAware
03:57AM -24.9310 116.3070 North 407 468 39,000 120 Level FlightAware
03:58AM -24.8285 116.3154 North 409 471 39,200  Climbing Aus ATC (RADAR)
03:58AM -24.8740 116.3100 North 407 468 39,000  Descending FlightAware
03:58AM -24.7614 116.3201 North 409 471 39,200  Climbing Aus ATC (RADAR)
03:58AM -24.8160 116.3140 North 407 468 39,000 -300 Descending FlightAware
03:59AM -24.7590 116.3170 North 407 468 39,000  Level FlightAware
03:59AM -24.7000 116.3200 North 407 468 39,000  Level FlightAware
04:00AM -24.6450 116.3230 North 407 468 39,000  Level FlightAware
04:01AM -24.5880 116.3270 North 407 468 39,000  Level FlightAware
04:01AM -24.4030 116.3420 North 427 491 39,000  Level FlightAware
04:02AM -24.3320 116.3470 North 428 493 39,000  Level FlightAware
04:02AM -24.2590 116.3510 North 428 493 39,000  Level FlightAware
04:03AM -24.1960 116.3550 North 427 491 39,000  Level FlightAware
04:04AM -24.1250 116.3600 North 426 490 39,000  Level FlightAware
04:04AM -24.0670 116.3640 North 426 490 39,000 180 Level FlightAware
04:05AM -24.0051 116.3677 North 423 487 39,200  Climbing Aus ATC (RADAR)
04:05AM -23.9830 116.3690 North 426 490 39,000  Descending FlightAware
04:05AM -23.9257 116.3722 North 424 488 39,200  Climbing Aus ATC (RADAR)
04:05AM -23.9210 116.3730 North 426 490 39,000 -300 Descending FlightAware
04:06AM -23.8460 116.3780 North 426 490 39,000 -120 Level FlightAware
04:06AM -23.7884 116.3800 North 416 479 38,900  Descending Aus ATC (RADAR)
04:06AM -23.7900 116.3810 North 426 490 39,000 120 Climbing FlightAware
04:07AM -23.7300 116.3840 North 426 490 39,000  Level FlightAware
04:08AM -23.6480 116.3820 359° North 425 489 39,000 -120 Level FlightAware
04:08AM -23.5921 116.3832 359° North 418 481 38,900  Descending Aus ATC (RADAR)
04:08AM -23.5850 116.3760 359° North 425 489 39,000 120 Climbing FlightAware
04:09AM -23.5190 116.3850 North 426 490 39,000  Level FlightAware
04:09AM -23.4570 116.3860 North 426 490 39,000 -120 Level FlightAware
04:10AM -23.3748 116.3877 North 421 484 38,900  Descending Aus ATC (RADAR)
04:10AM -23.3950 116.3870 North 426 490 39,000  Climbing FlightAware
04:10AM -23.3051 116.3890 North 422 486 38,900  Descending Aus ATC (RADAR)
04:10AM -23.3350 116.3890 North 426 490 39,000 120 Climbing FlightAware
04:11AM -23.2680 116.3900 North 426 490 39,000 -120 Level FlightAware
04:12AM -23.1465 116.3923 North 421 484 38,900  Descending Aus ATC (RADAR)
04:12AM -23.1420 116.3930 North 427 491 39,000 120 Climbing FlightAware
04:12AM -23.0810 116.3940 North 427 491 39,000 -120 Level FlightAware
04:13AM -22.9992 116.3951 North 418 481 38,900  Descending Aus ATC (RADAR)
04:13AM -23.0210 116.3950 North 427 491 39,000  Climbing FlightAware
04:14AM -22.9312 116.3963 North 414 476 38,900  Descending Aus ATC (RADAR)
04:14AM -22.9610 116.3960 North 427 491 39,000 120 Climbing FlightAware
04:14AM -22.9000 116.3970 North 427 491 39,000  Level FlightAware
04:15AM -22.7910 116.4000 North 416 479 39,000 -120 Level FlightAware
04:15AM -22.7244 116.4009 North 418 481 38,900  Descending Aus ATC (RADAR)
04:15AM -22.7290 116.4010 North 416 479 39,000 120 Climbing FlightAware
04:16AM -22.6440 116.4030 North 416 479 39,000  Level FlightAware
04:17AM -22.5800 116.4040 North 416 479 39,000 -120 Level FlightAware
04:17AM -22.4850 116.4060 North 417 480 38,900 -1,200 Descending FlightAware
04:18AM -22.4703 116.4055 North 410 472 38,000 -3,360 Descending Aus ATC (RADAR)
04:18AM -22.3837 116.4075 North 404 465 36,300 -1,140 Descending Aus ATC (RADAR)
04:18AM -22.3730 116.4090 North 416 479 37,000 900 Climbing FlightAware
04:19AM -22.3140 116.4100 North 416 479 37,000 -3,660 Level FlightAware
04:20AM -22.2092 116.4102 North 406 467 32,100 -4,620 Descending Aus ATC (RADAR)
04:20AM -22.1990 116.4120 North 423 487 33,000 -960 Climbing FlightAware
04:21AM -22.1150 116.4140 North 417 480 31,300 -2,880 Descending FlightAware
04:21AM -22.0390 116.4150 North 405 466 29,000 -3,000 Descending FlightAware
04:22AM -21.9780 116.4160 North 406 467 27,900 -2,220 Descending FlightAware
04:22AM -21.9040 116.4180 North 401 461 26,500 -2,160 Descending FlightAware
04:23AM -21.8470 116.4190 North 390 449 25,400 -1,980 Descending FlightAware
04:24AM -21.7840 116.4210 North 390 449 24,300 -2,100 Descending FlightAware
04:24AM -21.7190 116.4220 North 372 428 23,000 -1,980 Descending FlightAware
04:25AM -21.6620 116.4230 North 373 429 22,000 -2,100 Descending FlightAware
04:25AM -21.6545 116.4214 North 364 419 21,700 -2,220 Descending Aus ATC (RADAR)
04:25AM -21.5980 116.4240 North 355 409 20,700 -1,680 Descending FlightAware
04:26AM -21.5400 116.4250 North 354 407 19,700 -1,920 Descending FlightAware
04:27AM -21.4680 116.4270 North 371 427 18,300 -2,160 Descending FlightAware
04:27AM -21.4060 116.4300 North 359 413 17,100 -1,920 Descending FlightAware
04:28AM -21.3720 116.4400 15° North 359 413 16,500 -2,040 Descending FlightAware
04:28AM -21.3190 116.4660 25° Northeast 356 410 15,300 -1,980 Descending FlightAware
04:29AM -21.2780 116.4870 26° Northeast 357 411 14,400 -780 Descending FlightAware
04:29AM -21.2270 116.5130 25° Northeast 357 411 14,400 -2,040 Level FlightAware
04:30AM -21.1650 116.5460 26° Northeast 329 379 11,900 -3,000 Descending FlightAware
04:30AM -21.1170 116.5710 26° Northeast 325 374 10,900 -1,320 Descending FlightAware
04:31AM -21.0710 116.5940 25° Northeast 299 344 10,400 -780 Descending FlightAware
04:32AM -21.0290 116.6150 25° Northeast 284 327 10,000 -720 Descending FlightAware
04:32AM -21.0626 116.5968 27° Northeast 200 -780 Descending Aus ATC (Calculated)
04:32AM -21.0010 116.6300 25° Northeast 272 313 9,700 18,000 Climbing FlightAware
04:32AM -20.9830 116.6390 25° Northeast 270 311 9,500 -1,380 Descending FlightAware
04:33AM -20.9610 116.6500 25° Northeast 272 313 8,900 -1,800 Descending FlightAware
04:33AM -20.9360 116.6620 24° Northeast 281 323 8,300 -1,740 Descending FlightAware
04:33AM -20.9140 116.6740 27° Northeast 283 326 7,800 -1,680 Descending FlightAware
04:34AM -20.8850 116.6880 24° Northeast 283 326 7,100 -1,680 Descending FlightAware
04:34AM -20.8620 116.7000 26° Northeast 283 326 6,600 -1,680 Descending FlightAware
04:34AM -20.8380 116.7120 25° Northeast 284 327 6,000 -1,560 Descending FlightAware
04:35AM -20.8150 116.7230 24° Northeast 284 327 5,600 -1,500 Descending FlightAware
04:35AM -20.7999 116.7292 30° Northeast -1,620 Descending Aus ATC (Calculated)
04:35AM -20.7840 116.7390 26° Northeast 285 328 4,900 6,780 Climbing FlightAware
04:35AM -20.7610 116.7510 26° Northeast 288 331 4,300 -1,200 Descending FlightAware
04:36AM -20.7561 116.7513 30° Northeast -600 Descending Aus ATC (Calculated)
04:36AM -20.7370 116.7630 25° Northeast 272 313 4,100 14,460 Climbing FlightAware
04:36AM -20.7210 116.7710 25° Northeast 265 305 4,100  Level FlightAware
04:36AM -20.7342 116.7623 27° Northeast  Descending Aus ATC (Calculated)
04:36AM -20.7342 116.7623 27° Northeast 18,900 Level Aus ATC (Calculated)
04:36AM -20.7000 116.7810 24° Northeast 251 289 4,100 7,680 Climbing FlightAware
04:37AM -20.6800 116.7920 27° Northeast 234 269 4,100 -180 Level FlightAware
04:37AM -20.6610 116.8020 27° Northeast 219 252 4,000 -600 Descending FlightAware
04:37AM -20.6440 116.8140 33° Northeast 206 237 3,700 -1,200 Descending FlightAware
04:37AM -20.6410 116.8200 62° Northeast 210 242 3,500 -1,140 Descending FlightAware
04:38AM -20.6380 116.8320 75° East 198 228 3,400 -900 Descending FlightAware
04:38AM -20.6360 116.8550 85° East 195 224 3,000 -480 Descending FlightAware
04:38AM -20.6340 116.8750 84° East 195 224 3,000 -900 Level FlightAware
04:40AM -20.7000 116.8680 186° South 1,600 -1,080 Descending FlightAware
04:40AM -20.7040 116.8610 239° Southwest 145 167 1,400 -900 Descending FlightAware
04:40AM -20.7050 116.8540 261° West 143 165 1,300 -600 Descending FlightAware
04:40AM -20.7060 116.8420 265° West 140 161 1,100 -720 Descending FlightAware
04:41AM -20.7070 116.8310 264° West 134 154 900 -780 Descending FlightAware
04:41AM -20.7090 116.8130 263° West 130 150 600 -780 Descending FlightAware
04:41AM -20.7100 116.8040 263° West 129 148 400 -720 Descending FlightAware
04:42AM -20.7110 116.7930 264° West 125 144 200 -660 Descending FlightAware
04:42AM -20.7130 116.7790 264° West 120 138 -600 Descending FlightAware